Terminal Aerodrome Forecast
Issued by NWS

Home | Current Version | Previous Version | Text Only | Print | Product List | Glossary On
Versions: 1 2 3 4 5 6 7 8 9 10 11 12 13 14 15 16 17 18 19 20 21 22 23 24 25 26 27 28 29
000
FTUS45 KGJT 271126
TAFMTJ
TAF
KMTJ 271126Z 2712/2812 16005KT P6SM VCSH BKN045
      TEMPO 2712/2713 6SM -SN BR SCT025 OVC040
     FM271700 02004KT P6SM VCSH BKN050 OVC100
     FM280200 19004KT P6SM OVC080
     FM280800 14004KT P6SM OVC040=

USA.gov is the U.S. government's official web portal to all federal, state and local government web resources and services.